Honolulu, HI

10:27 PM HST on April 20, 2015 (GMT -1000)
Wheeler Army Air Field | | Change Station
CLOSE
Current Station
Airport
Location: Wheeler AAF,
Elevation: 837 ft
Nearby Weather Stations
Active Advisory: High Surf Advisory

Elev 837 ft 21.48 °N, 158.04 °W | Updated 29 minutes ago

Light Rain Showers
Light Showers Rain
70 °F
Feels Like 70 °F
N
1
Wind Variable Wind from NNE

Today
High -- | Low -- °F
--% Chance of Precip.
Yesterday
High -- | Low -- °F
Precip. -- in
6:08 AM 6:52 PM
Waxing Crescent, 9% visible
Pressure 30.13 in
Visibility 8.0 miles
Clouds Few 3100 ft
Dew Point 59 °F
Humidity 68%
Rainfall 0.02 in
Snow Depth Not available.
UV 0 out of 12
Pollen Not available.
Air Quality Not available.
Flu Activity Regional
METAR PHHI 210758Z 03001KT 8SM -SHRA FEW031 21/15 A3015 RMK AO2A SLP203 P0000 PWINO PNO FZRANO TSNO WND DATA ESTMD ALSTG/SLP DATA ESTMD $

More Conditions Fewer Conditions

Pressure 30.13 in
Visibility 8.0 miles
Clouds Few 3100 ft
Dew Point 59 °F
Humidity 68%
Rainfall 0.02 in
Snow Depth Not available.
UV 0 out of 12
Pollen Not available.
Air Quality Not available.
Flu Activity Regional
METAR PHHI 210758Z 03001KT 8SM -SHRA FEW031 21/15 A3015 RMK AO2A SLP203 P0000 PWINO PNO FZRANO TSNO WND DATA ESTMD ALSTG/SLP DATA ESTMD $

More Conditions Fewer Conditions

10-Day Weather Forecast

Almanac

Astronomy

Apr. 20, 2015 Rise Set
Actual Time
Civil Twilight
Nautical Twilight
Astronomical Twilight
Moon
Length of Visible Light
Length of Day
Tomorrow will be .
, % of the Moon is Illuminated

Today's Extremes

State Highs State Lows

Community

WunderPhotos

Upload Photos

1,815,327 photos uploaded!

WunderBlogs® & News

Nearby

Air Quality

  Air Quality AQ Index Pollutant
Not available.

Snow Depth

Station Depth Elevation

Earthquake Activity

City Distance Mag. Time & Date
Minimum magnitude displayed is 2.5.

Coastal Water Temperatures

Place Temperature

Stations

Nearby Weather Stations

Station Location Temp. Windchill Dew Point Humidity Wind Precip. Elev Updated Type
                   
High Surf Advisory
Statement as of 3:00 PM HST on April 20, 2015

... High surf advisory remains in effect until 6 am HST
Wednesday...

A high surf advisory remains in effect until 6 am HST Wednesday.

* Surf... 6 to 10 feet along east facing shores.

* Timing... through early Wednesday.

* Impacts... moderate... expect strong breaking waves... shore
break... and strong longshore and rip currents making swimming
difficult and dangerous.

Precautionary/preparedness actions...

Beachgoers... swimmers... and surfers should heed all advice given
by ocean safety officials and exercise caution.